KGCC

Gillette-Campbell County Airport

Gillette, Wyoming, USA
KGCC 162320Z 1700/1724 VRB05KT P6SM SCT050 BKN120 FM171300 15012KT P6SM FEW070
Issued Valid From Valid To
Jul-16 @ 23:20 UTC
(an hour ago)
Jul-17 @ 00:00 UTC
(26 minutes ago)
Jul-18 @ 00:00 UTC
(in 24 hours)
Jul-17 @ 00:00 to Jul-17 @ 13:00
KGCC 162320Z 1700/1724 VRB05KT P6SM SCT050 BKN120
Wind Visibility Clouds
Variable at 5 knots Greater than 6 miles
  • Scattered at 5,000' AGL
  • Broken at 12,000' AGL
From Jul-17 @ 13:00 to Jul-18 @ 00:00
FM171300 15012KT P6SM FEW070
Wind Visibility Clouds
150° at 12 knots Greater than 6 miles
  • Few at 7,000' AGL
KGCC 162320Z 1700/1724 VRB05KT P6SM SCT050 BKN120 FM171300 15012KT P6SM FEW070
Issued Jul-16 @ 23:20 UTC
(an hour ago)
Valid From Jul-17 @ 00:00 UTC
(26 minutes ago)
Valid To Jul-18 @ 00:00 UTC
(in 24 hours)
Jul-17 @ 00:00 - Jul-17 @ 13:00
Wind Visibility
Variable at 5 knots Greater than 6 miles
Clouds
  • Scattered at 5,000' AGL
  • Broken at 12,000' AGL
From Jul-17 @ 13:00 - Jul-18 @ 00:00
Wind Visibility
150° at 12 knots Greater than 6 miles
Clouds
  • Few at 7,000' AGL